sensor_id;sensor_type;location;lat;lon;timestamp;P1;durP1;ratioP1;P2;durP2;ratioP2
11082;SDS011;5595;50.186;8.468;2024-01-25T00:00:09;8.97;;;1.37;;
11082;SDS011;5595;50.186;8.468;2024-01-25T00:02:36;3.50;;;1.13;;
11082;SDS011;5595;50.186;8.468;2024-01-25T00:05:03;8.93;;;2.27;;
11082;SDS011;5595;50.186;8.468;2024-01-25T00:07:31;7.60;;;2.10;;
11082;SDS011;5595;50.186;8.468;2024-01-25T00:09:59;5.20;;;0.87;;
11082;SDS011;5595;50.186;8.468;2024-01-25T00:12:26;10.17;;;1.83;;
11082;SDS011;5595;50.186;8.468;2024-01-25T00:14:53;10.00;;;1.30;;
11082;SDS011;5595;50.186;8.468;2024-01-25T00:17:20;8.63;;;1.40;;
11082;SDS011;5595;50.186;8.468;2024-01-25T00:19:46;10.17;;;1.10;;
11082;SDS011;5595;50.186;8.468;2024-01-25T00:22:13;8.07;;;1.37;;
11082;SDS011;5595;50.186;8.468;2024-01-25T00:24:41;11.37;;;1.80;;
11082;SDS011;5595;50.186;8.468;2024-01-25T00:27:09;6.20;;;1.43;;
11082;SDS011;5595;50.186;8.468;2024-01-25T00:29:35;7.00;;;1.27;;
11082;SDS011;5595;50.186;8.468;2024-01-25T00:32:03;6.27;;;1.30;;
11082;SDS011;5595;50.186;8.468;2024-01-25T00:34:30;11.67;;;1.27;;
11082;SDS011;5595;50.186;8.468;2024-01-25T00:36:58;5.73;;;0.93;;
11082;SDS011;5595;50.186;8.468;2024-01-25T00:39:25;12.50;;;1.53;;
11082;SDS011;5595;50.186;8.468;2024-01-25T00:41:52;6.37;;;1.30;;
11082;SDS011;5595;50.186;8.468;2024-01-25T00:44:30;10.17;;;1.10;;
11082;SDS011;5595;50.186;8.468;2024-01-25T00:46:58;6.43;;;0.97;;
11082;SDS011;5595;50.186;8.468;2024-01-25T00:49:25;14.30;;;1.77;;
11082;SDS011;5595;50.186;8.468;2024-01-25T00:51:54;8.00;;;1.23;;
11082;SDS011;5595;50.186;8.468;2024-01-25T00:54:25;10.30;;;1.60;;
11082;SDS011;5595;50.186;8.468;2024-01-25T00:56:52;10.57;;;1.37;;
11082;SDS011;5595;50.186;8.468;2024-01-25T00:59:20;5.63;;;1.40;;
11082;SDS011;5595;50.186;8.468;2024-01-25T01:01:49;9.30;;;1.33;;
11082;SDS011;5595;50.186;8.468;2024-01-25T01:04:19;11.93;;;1.73;;
11082;SDS011;5595;50.186;8.468;2024-01-25T01:06:46;7.67;;;1.23;;
11082;SDS011;5595;50.186;8.468;2024-01-25T01:09:15;10.37;;;1.37;;
11082;SDS011;5595;50.186;8.468;2024-01-25T01:11:42;5.03;;;1.37;;
11082;SDS011;5595;50.186;8.468;2024-01-25T01:14:09;5.63;;;1.43;;
11082;SDS011;5595;50.186;8.468;2024-01-25T01:16:36;8.60;;;1.73;;
11082;SDS011;5595;50.186;8.468;2024-01-25T01:19:06;10.80;;;1.83;;
11082;SDS011;5595;50.186;8.468;2024-01-25T01:21:33;8.00;;;1.40;;
11082;SDS011;5595;50.186;8.468;2024-01-25T01:24:00;9.57;;;1.67;;
11082;SDS011;5595;50.186;8.468;2024-01-25T01:26:27;4.73;;;1.50;;
11082;SDS011;5595;50.186;8.468;2024-01-25T01:28:54;11.37;;;1.67;;
11082;SDS011;5595;50.186;8.468;2024-01-25T01:31:20;7.10;;;1.80;;
11082;SDS011;5595;50.186;8.468;2024-01-25T01:33:47;13.03;;;1.60;;
11082;SDS011;5595;50.186;8.468;2024-01-25T01:36:15;6.90;;;1.00;;
11082;SDS011;5595;50.186;8.468;2024-01-25T01:38:42;11.00;;;1.40;;
11082;SDS011;5595;50.186;8.468;2024-01-25T01:41:09;9.40;;;2.57;;
11082;SDS011;5595;50.186;8.468;2024-01-25T01:43:37;6.20;;;1.27;;
11082;SDS011;5595;50.186;8.468;2024-01-25T01:46:06;4.80;;;1.10;;
11082;SDS011;5595;50.186;8.468;2024-01-25T01:48:37;6.83;;;1.20;;
11082;SDS011;5595;50.186;8.468;2024-01-25T01:51:05;11.83;;;1.60;;
11082;SDS011;5595;50.186;8.468;2024-01-25T01:53:33;7.43;;;1.23;;
11082;SDS011;5595;50.186;8.468;2024-01-25T01:56:01;9.73;;;1.70;;
11082;SDS011;5595;50.186;8.468;2024-01-25T01:58:28;6.77;;;1.40;;
11082;SDS011;5595;50.186;8.468;2024-01-25T02:00:56;6.83;;;1.20;;
11082;SDS011;5595;50.186;8.468;2024-01-25T02:03:29;6.47;;;0.87;;
11082;SDS011;5595;50.186;8.468;2024-01-25T02:05:55;7.17;;;1.33;;
11082;SDS011;5595;50.186;8.468;2024-01-25T02:08:27;7.93;;;1.50;;
11082;SDS011;5595;50.186;8.468;2024-01-25T02:10:55;8.67;;;1.30;;
11082;SDS011;5595;50.186;8.468;2024-01-25T02:13:22;6.37;;;1.07;;
11082;SDS011;5595;50.186;8.468;2024-01-25T02:15:51;12.97;;;1.33;;
11082;SDS011;5595;50.186;8.468;2024-01-25T02:18:18;13.17;;;1.77;;
11082;SDS011;5595;50.186;8.468;2024-01-25T02:20:45;4.67;;;0.97;;
11082;SDS011;5595;50.186;8.468;2024-01-25T02:23:13;7.93;;;1.10;;
11082;SDS011;5595;50.186;8.468;2024-01-25T02:25:40;10.93;;;1.10;;
11082;SDS011;5595;50.186;8.468;2024-01-25T02:28:07;17.57;;;1.70;;
11082;SDS011;5595;50.186;8.468;2024-01-25T02:30:33;3.17;;;0.93;;
11082;SDS011;5595;50.186;8.468;2024-01-25T02:33:00;6.53;;;1.17;;
11082;SDS011;5595;50.186;8.468;2024-01-25T02:35:27;8.00;;;1.50;;
11082;SDS011;5595;50.186;8.468;2024-01-25T02:37:54;8.47;;;1.47;;
11082;SDS011;5595;50.186;8.468;2024-01-25T02:40:23;13.17;;;1.60;;
11082;SDS011;5595;50.186;8.468;2024-01-25T02:42:49;16.23;;;2.57;;
11082;SDS011;5595;50.186;8.468;2024-01-25T02:45:19;14.10;;;2.00;;
11082;SDS011;5595;50.186;8.468;2024-01-25T02:47:46;10.37;;;1.60;;
11082;SDS011;5595;50.186;8.468;2024-01-25T02:50:12;10.87;;;1.80;;
11082;SDS011;5595;50.186;8.468;2024-01-25T02:52:39;5.97;;;1.30;;
11082;SDS011;5595;50.186;8.468;2024-01-25T02:55:09;4.73;;;0.80;;
11082;SDS011;5595;50.186;8.468;2024-01-25T02:57:37;8.13;;;1.20;;
11082;SDS011;5595;50.186;8.468;2024-01-25T03:00:04;6.87;;;1.50;;
11082;SDS011;5595;50.186;8.468;2024-01-25T03:02:32;4.77;;;1.00;;
11082;SDS011;5595;50.186;8.468;2024-01-25T03:04:58;12.63;;;1.50;;
11082;SDS011;5595;50.186;8.468;2024-01-25T03:07:25;5.93;;;1.47;;
11082;SDS011;5595;50.186;8.468;2024-01-25T03:09:52;7.40;;;1.40;;
11082;SDS011;5595;50.186;8.468;2024-01-25T03:12:19;7.23;;;1.40;;
11082;SDS011;5595;50.186;8.468;2024-01-25T03:14:47;10.90;;;1.63;;
11082;SDS011;5595;50.186;8.468;2024-01-25T03:17:14;7.50;;;1.33;;
11082;SDS011;5595;50.186;8.468;2024-01-25T03:19:41;9.73;;;1.53;;
11082;SDS011;5595;50.186;8.468;2024-01-25T03:22:07;11.20;;;1.80;;
11082;SDS011;5595;50.186;8.468;2024-01-25T03:24:36;6.00;;;1.37;;
11082;SDS011;5595;50.186;8.468;2024-01-25T03:27:03;11.00;;;1.70;;
11082;SDS011;5595;50.186;8.468;2024-01-25T03:29:30;11.33;;;1.43;;
11082;SDS011;5595;50.186;8.468;2024-01-25T03:31:58;10.10;;;1.67;;
11082;SDS011;5595;50.186;8.468;2024-01-25T03:34:25;4.20;;;1.13;;
11082;SDS011;5595;50.186;8.468;2024-01-25T03:36:54;10.20;;;1.10;;
11082;SDS011;5595;50.186;8.468;2024-01-25T03:39:20;10.30;;;1.50;;
11082;SDS011;5595;50.186;8.468;2024-01-25T03:41:47;9.97;;;1.73;;
11082;SDS011;5595;50.186;8.468;2024-01-25T03:44:14;10.77;;;1.50;;
11082;SDS011;5595;50.186;8.468;2024-01-25T03:46:44;15.07;;;1.47;;
11082;SDS011;5595;50.186;8.468;2024-01-25T03:49:12;7.67;;;1.17;;
11082;SDS011;5595;50.186;8.468;2024-01-25T03:51:39;12.00;;;1.57;;
11082;SDS011;5595;50.186;8.468;2024-01-25T03:54:06;12.60;;;1.57;;
11082;SDS011;5595;50.186;8.468;2024-01-25T03:56:33;10.50;;;1.70;;
11082;SDS011;5595;50.186;8.468;2024-01-25T03:59:00;8.77;;;2.10;;
11082;SDS011;5595;50.186;8.468;2024-01-25T04:01:26;10.07;;;1.80;;
11082;SDS011;5595;50.186;8.468;2024-01-25T04:03:53;8.23;;;1.47;;
11082;SDS011;5595;50.186;8.468;2024-01-25T04:06:21;20.93;;;2.20;;
11082;SDS011;5595;50.186;8.468;2024-01-25T04:08:48;17.17;;;1.87;;
11082;SDS011;5595;50.186;8.468;2024-01-25T04:11:15;8.93;;;1.63;;
11082;SDS011;5595;50.186;8.468;2024-01-25T04:13:41;15.13;;;2.40;;
11082;SDS011;5595;50.186;8.468;2024-01-25T04:16:08;11.50;;;1.83;;
11082;SDS011;5595;50.186;8.468;2024-01-25T04:18:37;9.13;;;1.20;;
11082;SDS011;5595;50.186;8.468;2024-01-25T04:21:04;9.53;;;1.63;;
11082;SDS011;5595;50.186;8.468;2024-01-25T04:23:33;11.40;;;1.50;;
11082;SDS011;5595;50.186;8.468;2024-01-25T04:26:00;9.47;;;1.60;;
11082;SDS011;5595;50.186;8.468;2024-01-25T04:28:27;10.63;;;1.77;;
11082;SDS011;5595;50.186;8.468;2024-01-25T04:30:53;7.50;;;1.37;;
11082;SDS011;5595;50.186;8.468;2024-01-25T04:33:20;14.30;;;1.80;;
11082;SDS011;5595;50.186;8.468;2024-01-25T04:35:47;12.27;;;1.80;;
11082;SDS011;5595;50.186;8.468;2024-01-25T04:38:14;11.80;;;1.23;;
11082;SDS011;5595;50.186;8.468;2024-01-25T04:40:42;7.10;;;1.50;;
11082;SDS011;5595;50.186;8.468;2024-01-25T04:43:08;10.03;;;1.60;;
11082;SDS011;5595;50.186;8.468;2024-01-25T04:45:36;9.43;;;1.67;;
11082;SDS011;5595;50.186;8.468;2024-01-25T04:48:03;6.80;;;1.30;;
11082;SDS011;5595;50.186;8.468;2024-01-25T04:50:31;13.40;;;2.10;;
11082;SDS011;5595;50.186;8.468;2024-01-25T04:52:57;5.77;;;1.37;;
11082;SDS011;5595;50.186;8.468;2024-01-25T04:55:24;9.73;;;1.83;;
11082;SDS011;5595;50.186;8.468;2024-01-25T04:57:52;4.73;;;1.37;;
11082;SDS011;5595;50.186;8.468;2024-01-25T05:00:20;9.90;;;2.03;;
11082;SDS011;5595;50.186;8.468;2024-01-25T05:02:47;9.33;;;2.20;;
11082;SDS011;5595;50.186;8.468;2024-01-25T05:05:16;13.90;;;1.87;;
11082;SDS011;5595;50.186;8.468;2024-01-25T05:07:43;9.13;;;1.50;;
11082;SDS011;5595;50.186;8.468;2024-01-25T05:10:09;6.17;;;1.27;;
11082;SDS011;5595;50.186;8.468;2024-01-25T05:12:36;4.10;;;1.10;;
11082;SDS011;5595;50.186;8.468;2024-01-25T05:15:05;3.33;;;0.73;;
11082;SDS011;5595;50.186;8.468;2024-01-25T05:17:33;9.07;;;1.67;;
11082;SDS011;5595;50.186;8.468;2024-01-25T05:20:00;5.43;;;1.23;;
11082;SDS011;5595;50.186;8.468;2024-01-25T05:22:28;11.67;;;2.00;;
11082;SDS011;5595;50.186;8.468;2024-01-25T05:24:55;11.53;;;1.83;;
11082;SDS011;5595;50.186;8.468;2024-01-25T05:27:21;13.20;;;1.23;;
11082;SDS011;5595;50.186;8.468;2024-01-25T05:29:48;10.93;;;2.13;;
11082;SDS011;5595;50.186;8.468;2024-01-25T05:32:16;8.60;;;1.63;;
11082;SDS011;5595;50.186;8.468;2024-01-25T05:34:43;11.70;;;1.73;;
11082;SDS011;5595;50.186;8.468;2024-01-25T05:37:10;16.93;;;1.90;;
11082;SDS011;5595;50.186;8.468;2024-01-25T05:39:36;7.60;;;1.73;;
11082;SDS011;5595;50.186;8.468;2024-01-25T05:42:03;14.10;;;2.20;;
11082;SDS011;5595;50.186;8.468;2024-01-25T05:44:30;11.27;;;1.97;;
11082;SDS011;5595;50.186;8.468;2024-01-25T05:46:57;8.93;;;2.13;;
11082;SDS011;5595;50.186;8.468;2024-01-25T05:49:25;7.00;;;2.07;;
11082;SDS011;5595;50.186;8.468;2024-01-25T05:51:52;10.57;;;2.27;;
11082;SDS011;5595;50.186;8.468;2024-01-25T05:54:18;10.60;;;2.03;;
11082;SDS011;5595;50.186;8.468;2024-01-25T05:56:45;14.37;;;2.30;;
11082;SDS011;5595;50.186;8.468;2024-01-25T05:59:12;4.90;;;1.83;;
11082;SDS011;5595;50.186;8.468;2024-01-25T06:01:39;10.80;;;1.73;;
11082;SDS011;5595;50.186;8.468;2024-01-25T06:04:06;9.17;;;1.90;;
11082;SDS011;5595;50.186;8.468;2024-01-25T06:06:34;11.20;;;1.97;;
11082;SDS011;5595;50.186;8.468;2024-01-25T06:09:01;9.80;;;2.23;;
11082;SDS011;5595;50.186;8.468;2024-01-25T06:11:28;9.47;;;1.90;;
11082;SDS011;5595;50.186;8.468;2024-01-25T06:13:55;10.63;;;1.43;;
11082;SDS011;5595;50.186;8.468;2024-01-25T06:16:22;18.57;;;2.40;;
11082;SDS011;5595;50.186;8.468;2024-01-25T06:18:48;15.33;;;2.23;;
11082;SDS011;5595;50.186;8.468;2024-01-25T06:21:15;6.20;;;2.23;;
11082;SDS011;5595;50.186;8.468;2024-01-25T06:23:43;9.63;;;2.53;;
11082;SDS011;5595;50.186;8.468;2024-01-25T06:26:10;10.60;;;2.17;;
11082;SDS011;5595;50.186;8.468;2024-01-25T06:28:37;8.87;;;2.10;;
11082;SDS011;5595;50.186;8.468;2024-01-25T06:31:05;11.00;;;2.93;;
11082;SDS011;5595;50.186;8.468;2024-01-25T06:33:31;9.10;;;2.20;;
11082;SDS011;5595;50.186;8.468;2024-01-25T06:35:59;12.30;;;2.60;;
11082;SDS011;5595;50.186;8.468;2024-01-25T06:38:26;5.70;;;2.00;;
11082;SDS011;5595;50.186;8.468;2024-01-25T06:40:54;8.47;;;2.70;;
11082;SDS011;5595;50.186;8.468;2024-01-25T06:43:21;10.47;;;2.57;;
11082;SDS011;5595;50.186;8.468;2024-01-25T06:45:47;12.90;;;2.37;;
11082;SDS011;5595;50.186;8.468;2024-01-25T06:48:14;8.00;;;2.40;;
11082;SDS011;5595;50.186;8.468;2024-01-25T06:50:41;11.57;;;2.40;;
11082;SDS011;5595;50.186;8.468;2024-01-25T06:53:08;8.37;;;2.53;;
11082;SDS011;5595;50.186;8.468;2024-01-25T06:55:34;10.53;;;2.53;;
11082;SDS011;5595;50.186;8.468;2024-01-25T06:58:03;7.60;;;2.20;;
11082;SDS011;5595;50.186;8.468;2024-01-25T07:00:30;8.27;;;2.07;;
11082;SDS011;5595;50.186;8.468;2024-01-25T07:02:56;5.13;;;2.23;;
11082;SDS011;5595;50.186;8.468;2024-01-25T07:05:23;9.63;;;2.17;;
11082;SDS011;5595;50.186;8.468;2024-01-25T07:07:50;11.60;;;2.30;;
11082;SDS011;5595;50.186;8.468;2024-01-25T07:10:16;7.73;;;2.17;;
11082;SDS011;5595;50.186;8.468;2024-01-25T07:12:43;7.70;;;2.23;;
11082;SDS011;5595;50.186;8.468;2024-01-25T07:15:11;7.23;;;1.77;;
11082;SDS011;5595;50.186;8.468;2024-01-25T07:17:39;7.03;;;2.00;;
11082;SDS011;5595;50.186;8.468;2024-01-25T07:20:06;9.93;;;1.87;;
11082;SDS011;5595;50.186;8.468;2024-01-25T07:22:34;5.47;;;1.90;;
11082;SDS011;5595;50.186;8.468;2024-01-25T07:25:00;14.13;;;2.67;;
11082;SDS011;5595;50.186;8.468;2024-01-25T07:27:27;9.03;;;2.33;;
11082;SDS011;5595;50.186;8.468;2024-01-25T07:29:54;14.00;;;2.63;;
11082;SDS011;5595;50.186;8.468;2024-01-25T07:32:22;12.60;;;2.37;;
11082;SDS011;5595;50.186;8.468;2024-01-25T07:34:50;5.77;;;1.87;;
11082;SDS011;5595;50.186;8.468;2024-01-25T07:37:16;15.73;;;2.57;;
11082;SDS011;5595;50.186;8.468;2024-01-25T07:39:44;12.10;;;3.10;;
11082;SDS011;5595;50.186;8.468;2024-01-25T07:42:11;16.50;;;3.33;;
11082;SDS011;5595;50.186;8.468;2024-01-25T07:44:38;10.87;;;3.03;;
11082;SDS011;5595;50.186;8.468;2024-01-25T07:47:05;13.70;;;2.30;;
11082;SDS011;5595;50.186;8.468;2024-01-25T07:49:33;8.27;;;2.17;;
11082;SDS011;5595;50.186;8.468;2024-01-25T07:52:00;10.77;;;2.70;;
11082;SDS011;5595;50.186;8.468;2024-01-25T07:54:26;14.67;;;3.40;;
11082;SDS011;5595;50.186;8.468;2024-01-25T07:56:53;15.27;;;3.20;;
11082;SDS011;5595;50.186;8.468;2024-01-25T07:59:20;9.53;;;2.20;;
11082;SDS011;5595;50.186;8.468;2024-01-25T08:01:46;14.23;;;3.07;;
11082;SDS011;5595;50.186;8.468;2024-01-25T08:04:13;14.70;;;2.73;;
11082;SDS011;5595;50.186;8.468;2024-01-25T08:06:41;9.77;;;3.37;;
11082;SDS011;5595;50.186;8.468;2024-01-25T08:09:08;9.83;;;1.67;;
11082;SDS011;5595;50.186;8.468;2024-01-25T08:11:35;16.07;;;3.17;;
11082;SDS011;5595;50.186;8.468;2024-01-25T08:14:02;7.27;;;1.63;;
11082;SDS011;5595;50.186;8.468;2024-01-25T08:16:30;9.33;;;2.83;;
11082;SDS011;5595;50.186;8.468;2024-01-25T08:18:57;14.30;;;2.77;;
11082;SDS011;5595;50.186;8.468;2024-01-25T08:21:24;10.30;;;2.07;;
11082;SDS011;5595;50.186;8.468;2024-01-25T08:23:52;12.87;;;2.90;;
11082;SDS011;5595;50.186;8.468;2024-01-25T08:26:21;14.67;;;2.80;;
11082;SDS011;5595;50.186;8.468;2024-01-25T08:28:48;5.17;;;2.10;;
11082;SDS011;5595;50.186;8.468;2024-01-25T08:31:15;12.33;;;2.47;;
11082;SDS011;5595;50.186;8.468;2024-01-25T08:33:42;13.27;;;2.73;;
11082;SDS011;5595;50.186;8.468;2024-01-25T08:36:12;5.10;;;2.00;;
11082;SDS011;5595;50.186;8.468;2024-01-25T08:38:39;11.07;;;3.03;;
11082;SDS011;5595;50.186;8.468;2024-01-25T08:41:07;8.40;;;2.13;;
11082;SDS011;5595;50.186;8.468;2024-01-25T08:43:36;18.17;;;3.17;;
11082;SDS011;5595;50.186;8.468;2024-01-25T08:46:03;18.47;;;5.77;;
11082;SDS011;5595;50.186;8.468;2024-01-25T08:48:30;12.93;;;3.77;;
11082;SDS011;5595;50.186;8.468;2024-01-25T08:50:57;16.03;;;2.37;;
11082;SDS011;5595;50.186;8.468;2024-01-25T08:53:24;17.30;;;3.30;;
11082;SDS011;5595;50.186;8.468;2024-01-25T08:56:00;12.13;;;2.93;;
11082;SDS011;5595;50.186;8.468;2024-01-25T08:58:28;14.30;;;2.27;;
11082;SDS011;5595;50.186;8.468;2024-01-25T09:00:55;16.63;;;2.93;;
11082;SDS011;5595;50.186;8.468;2024-01-25T09:03:22;9.07;;;2.27;;
11082;SDS011;5595;50.186;8.468;2024-01-25T09:05:48;14.03;;;2.77;;
11082;SDS011;5595;50.186;8.468;2024-01-25T09:08:15;13.70;;;3.20;;
11082;SDS011;5595;50.186;8.468;2024-01-25T09:10:41;9.70;;;2.20;;
11082;SDS011;5595;50.186;8.468;2024-01-25T09:13:09;21.17;;;3.07;;
11082;SDS011;5595;50.186;8.468;2024-01-25T09:15:37;13.93;;;2.63;;
11082;SDS011;5595;50.186;8.468;2024-01-25T09:18:04;9.40;;;2.60;;
11082;SDS011;5595;50.186;8.468;2024-01-25T09:20:31;12.63;;;2.87;;
11082;SDS011;5595;50.186;8.468;2024-01-25T09:22:58;15.37;;;2.90;;
11082;SDS011;5595;50.186;8.468;2024-01-25T09:25:25;9.17;;;2.50;;
11082;SDS011;5595;50.186;8.468;2024-01-25T09:27:51;9.97;;;2.87;;
11082;SDS011;5595;50.186;8.468;2024-01-25T09:30:18;11.33;;;2.37;;
11082;SDS011;5595;50.186;8.468;2024-01-25T09:32:47;11.87;;;2.50;;
11082;SDS011;5595;50.186;8.468;2024-01-25T09:35:14;9.13;;;2.80;;
11082;SDS011;5595;50.186;8.468;2024-01-25T09:37:41;11.17;;;2.73;;
11082;SDS011;5595;50.186;8.468;2024-01-25T09:40:10;10.63;;;2.60;;
11082;SDS011;5595;50.186;8.468;2024-01-25T09:42:38;9.77;;;2.20;;
11082;SDS011;5595;50.186;8.468;2024-01-25T09:45:06;15.07;;;2.17;;
11082;SDS011;5595;50.186;8.468;2024-01-25T09:47:33;18.80;;;2.80;;
11082;SDS011;5595;50.186;8.468;2024-01-25T09:50:11;13.53;;;2.53;;
11082;SDS011;5595;50.186;8.468;2024-01-25T09:52:38;10.10;;;2.37;;
11082;SDS011;5595;50.186;8.468;2024-01-25T09:55:06;11.57;;;2.57;;
11082;SDS011;5595;50.186;8.468;2024-01-25T09:57:35;14.50;;;2.03;;
11082;SDS011;5595;50.186;8.468;2024-01-25T10:00:02;9.23;;;2.50;;
11082;SDS011;5595;50.186;8.468;2024-01-25T10:02:31;14.97;;;1.97;;
11082;SDS011;5595;50.186;8.468;2024-01-25T10:04:58;11.50;;;2.50;;
11082;SDS011;5595;50.186;8.468;2024-01-25T10:07:36;12.10;;;1.93;;
11082;SDS011;5595;50.186;8.468;2024-01-25T10:10:06;8.87;;;1.80;;
11082;SDS011;5595;50.186;8.468;2024-01-25T10:12:34;9.43;;;2.03;;
11082;SDS011;5595;50.186;8.468;2024-01-25T10:15:02;14.13;;;2.50;;
11082;SDS011;5595;50.186;8.468;2024-01-25T10:17:29;17.80;;;2.80;;
11082;SDS011;5595;50.186;8.468;2024-01-25T10:19:56;9.57;;;2.07;;
11082;SDS011;5595;50.186;8.468;2024-01-25T10:22:26;15.53;;;2.43;;
11082;SDS011;5595;50.186;8.468;2024-01-25T10:24:54;9.33;;;2.37;;
11082;SDS011;5595;50.186;8.468;2024-01-25T10:27:21;12.13;;;1.80;;
11082;SDS011;5595;50.186;8.468;2024-01-25T10:29:48;11.83;;;2.20;;
11082;SDS011;5595;50.186;8.468;2024-01-25T10:32:15;7.67;;;1.53;;
11082;SDS011;5595;50.186;8.468;2024-01-25T10:34:43;8.10;;;1.87;;
11082;SDS011;5595;50.186;8.468;2024-01-25T10:37:13;9.30;;;1.53;;
11082;SDS011;5595;50.186;8.468;2024-01-25T10:39:40;14.43;;;2.40;;
11082;SDS011;5595;50.186;8.468;2024-01-25T10:42:09;9.50;;;2.13;;
11082;SDS011;5595;50.186;8.468;2024-01-25T10:44:36;9.50;;;1.83;;
11082;SDS011;5595;50.186;8.468;2024-01-25T10:47:05;11.27;;;2.40;;
11082;SDS011;5595;50.186;8.468;2024-01-25T10:49:32;10.70;;;1.83;;
11082;SDS011;5595;50.186;8.468;2024-01-25T10:52:01;9.00;;;1.83;;
11082;SDS011;5595;50.186;8.468;2024-01-25T10:54:32;7.87;;;1.57;;
11082;SDS011;5595;50.186;8.468;2024-01-25T10:57:00;8.47;;;1.33;;
11082;SDS011;5595;50.186;8.468;2024-01-25T10:59:28;9.37;;;1.77;;
11082;SDS011;5595;50.186;8.468;2024-01-25T11:01:56;11.23;;;1.93;;
11082;SDS011;5595;50.186;8.468;2024-01-25T11:04:23;8.13;;;1.40;;
11082;SDS011;5595;50.186;8.468;2024-01-25T11:06:50;7.43;;;1.60;;
11082;SDS011;5595;50.186;8.468;2024-01-25T11:09:18;6.70;;;1.37;;
11082;SDS011;5595;50.186;8.468;2024-01-25T11:11:46;7.53;;;1.17;;
11082;SDS011;5595;50.186;8.468;2024-01-25T11:14:14;3.83;;;1.07;;
11082;SDS011;5595;50.186;8.468;2024-01-25T11:16:43;6.27;;;1.50;;
11082;SDS011;5595;50.186;8.468;2024-01-25T11:19:15;12.53;;;2.77;;
11082;SDS011;5595;50.186;8.468;2024-01-25T11:21:44;9.23;;;1.87;;
11082;SDS011;5595;50.186;8.468;2024-01-25T11:24:11;13.50;;;2.03;;
11082;SDS011;5595;50.186;8.468;2024-01-25T11:26:39;8.07;;;1.90;;
11082;SDS011;5595;50.186;8.468;2024-01-25T11:29:06;14.87;;;2.17;;
11082;SDS011;5595;50.186;8.468;2024-01-25T11:31:33;8.60;;;1.90;;
11082;SDS011;5595;50.186;8.468;2024-01-25T11:34:02;11.17;;;1.70;;
11082;SDS011;5595;50.186;8.468;2024-01-25T11:36:29;11.30;;;1.57;;
11082;SDS011;5595;50.186;8.468;2024-01-25T11:38:56;12.20;;;1.80;;
11082;SDS011;5595;50.186;8.468;2024-01-25T11:41:23;7.33;;;1.27;;
11082;SDS011;5595;50.186;8.468;2024-01-25T11:43:50;9.67;;;1.80;;
11082;SDS011;5595;50.186;8.468;2024-01-25T11:46:19;8.10;;;1.33;;
11082;SDS011;5595;50.186;8.468;2024-01-25T11:48:46;12.93;;;2.00;;
11082;SDS011;5595;50.186;8.468;2024-01-25T11:51:14;5.43;;;1.57;;
11082;SDS011;5595;50.186;8.468;2024-01-25T11:53:41;4.03;;;1.23;;
11082;SDS011;5595;50.186;8.468;2024-01-25T11:56:08;11.60;;;1.93;;
11082;SDS011;5595;50.186;8.468;2024-01-25T11:58:37;10.23;;;1.45;;
11082;SDS011;5595;50.186;8.468;2024-01-25T12:01:04;4.63;;;1.45;;
11082;SDS011;5595;50.186;8.468;2024-01-25T12:03:33;11.63;;;2.20;;
11082;SDS011;5595;50.186;8.468;2024-01-25T12:06:00;7.43;;;1.17;;
11082;SDS011;5595;50.186;8.468;2024-01-25T12:08:31;11.38;;;1.98;;
11082;SDS011;5595;50.186;8.468;2024-01-25T12:11:02;7.55;;;1.52;;
11082;SDS011;5595;50.186;8.468;2024-01-25T12:13:31;7.88;;;1.23;;
11082;SDS011;5595;50.186;8.468;2024-01-25T12:16:00;5.40;;;1.15;;
11082;SDS011;5595;50.186;8.468;2024-01-25T12:18:27;15.30;;;1.93;;
11082;SDS011;5595;50.186;8.468;2024-01-25T12:20:54;9.02;;;1.35;;
11082;SDS011;5595;50.186;8.468;2024-01-25T12:23:23;9.07;;;1.13;;
11082;SDS011;5595;50.186;8.468;2024-01-25T12:25:59;11.80;;;2.25;;
11082;SDS011;5595;50.186;8.468;2024-01-25T12:28:27;14.77;;;1.93;;
11082;SDS011;5595;50.186;8.468;2024-01-25T12:30:54;3.57;;;1.17;;
11082;SDS011;5595;50.186;8.468;2024-01-25T12:33:21;16.13;;;1.63;;
11082;SDS011;5595;50.186;8.468;2024-01-25T12:35:48;9.13;;;0.93;;
11082;SDS011;5595;50.186;8.468;2024-01-25T12:38:15;5.10;;;1.10;;
11082;SDS011;5595;50.186;8.468;2024-01-25T12:40:43;15.55;;;1.63;;
11082;SDS011;5595;50.186;8.468;2024-01-25T12:43:12;9.00;;;1.42;;
11082;SDS011;5595;50.186;8.468;2024-01-25T12:45:39;9.43;;;1.45;;
11082;SDS011;5595;50.186;8.468;2024-01-25T12:48:06;8.05;;;1.40;;
11082;SDS011;5595;50.186;8.468;2024-01-25T12:50:34;8.18;;;1.05;;
11082;SDS011;5595;50.186;8.468;2024-01-25T12:53:00;11.68;;;1.70;;
11082;SDS011;5595;50.186;8.468;2024-01-25T12:55:28;6.85;;;1.73;;
11082;SDS011;5595;50.186;8.468;2024-01-25T12:57:56;7.20;;;1.63;;
11082;SDS011;5595;50.186;8.468;2024-01-25T13:00:24;12.88;;;1.50;;
11082;SDS011;5595;50.186;8.468;2024-01-25T13:02:51;4.38;;;1.27;;
11082;SDS011;5595;50.186;8.468;2024-01-25T13:05:19;8.07;;;1.40;;
11082;SDS011;5595;50.186;8.468;2024-01-25T13:07:47;9.85;;;1.33;;
11082;SDS011;5595;50.186;8.468;2024-01-25T13:10:14;3.53;;;1.17;;
11082;SDS011;5595;50.186;8.468;2024-01-25T13:12:41;9.63;;;1.70;;
11082;SDS011;5595;50.186;8.468;2024-01-25T13:15:09;7.63;;;1.90;;
11082;SDS011;5595;50.186;8.468;2024-01-25T13:17:36;10.95;;;1.23;;
11082;SDS011;5595;50.186;8.468;2024-01-25T13:20:03;10.55;;;1.48;;
11082;SDS011;5595;50.186;8.468;2024-01-25T13:22:31;4.57;;;1.42;;
11082;SDS011;5595;50.186;8.468;2024-01-25T13:24:58;6.63;;;1.67;;
11082;SDS011;5595;50.186;8.468;2024-01-25T13:27:25;7.97;;;1.67;;
11082;SDS011;5595;50.186;8.468;2024-01-25T13:29:52;12.80;;;1.52;;
11082;SDS011;5595;50.186;8.468;2024-01-25T13:32:23;9.98;;;1.35;;
11082;SDS011;5595;50.186;8.468;2024-01-25T13:34:50;5.80;;;1.05;;
11082;SDS011;5595;50.186;8.468;2024-01-25T13:37:16;8.25;;;0.98;;
11082;SDS011;5595;50.186;8.468;2024-01-25T13:39:43;18.98;;;1.85;;
11082;SDS011;5595;50.186;8.468;2024-01-25T13:42:10;7.72;;;1.42;;
11082;SDS011;5595;50.186;8.468;2024-01-25T13:44:37;5.70;;;1.17;;
11082;SDS011;5595;50.186;8.468;2024-01-25T13:47:04;11.90;;;1.77;;
11082;SDS011;5595;50.186;8.468;2024-01-25T13:49:32;10.15;;;1.65;;
11082;SDS011;5595;50.186;8.468;2024-01-25T13:52:00;8.57;;;1.40;;
11082;SDS011;5595;50.186;8.468;2024-01-25T13:54:27;6.15;;;1.63;;
11082;SDS011;5595;50.186;8.468;2024-01-25T13:56:54;9.20;;;1.88;;
11082;SDS011;5595;50.186;8.468;2024-01-25T13:59:21;9.90;;;1.27;;
11082;SDS011;5595;50.186;8.468;2024-01-25T14:01:49;4.60;;;1.23;;
11082;SDS011;5595;50.186;8.468;2024-01-25T14:04:16;14.10;;;1.63;;
11082;SDS011;5595;50.186;8.468;2024-01-25T14:06:44;12.77;;;1.50;;
11082;SDS011;5595;50.186;8.468;2024-01-25T14:09:11;5.65;;;1.17;;
11082;SDS011;5595;50.186;8.468;2024-01-25T14:11:37;6.97;;;1.23;;
11082;SDS011;5595;50.186;8.468;2024-01-25T14:14:04;13.98;;;1.45;;
11082;SDS011;5595;50.186;8.468;2024-01-25T14:16:31;11.25;;;1.10;;
11082;SDS011;5595;50.186;8.468;2024-01-25T14:18:58;12.93;;;1.92;;
11082;SDS011;5595;50.186;8.468;2024-01-25T14:21:28;8.68;;;1.45;;
11082;SDS011;5595;50.186;8.468;2024-01-25T14:23:56;12.85;;;1.52;;
11082;SDS011;5595;50.186;8.468;2024-01-25T14:26:23;12.73;;;1.70;;
11082;SDS011;5595;50.186;8.468;2024-01-25T14:28:50;6.50;;;1.40;;
11082;SDS011;5595;50.186;8.468;2024-01-25T14:31:17;10.77;;;1.75;;
11082;SDS011;5595;50.186;8.468;2024-01-25T14:33:43;9.80;;;1.37;;
11082;SDS011;5595;50.186;8.468;2024-01-25T14:36:10;8.98;;;1.65;;
11082;SDS011;5595;50.186;8.468;2024-01-25T14:38:38;10.37;;;1.73;;
11082;SDS011;5595;50.186;8.468;2024-01-25T14:41:08;6.27;;;1.60;;
11082;SDS011;5595;50.186;8.468;2024-01-25T14:43:36;11.30;;;1.70;;
11082;SDS011;5595;50.186;8.468;2024-01-25T14:46:04;7.90;;;2.00;;
11082;SDS011;5595;50.186;8.468;2024-01-25T14:48:31;9.53;;;1.30;;
11082;SDS011;5595;50.186;8.468;2024-01-25T14:50:58;8.93;;;1.37;;
11082;SDS011;5595;50.186;8.468;2024-01-25T14:53:25;8.97;;;1.67;;
11082;SDS011;5595;50.186;8.468;2024-01-25T14:55:51;15.00;;;1.87;;